sensor_id;sensor_type;location;lat;lon;timestamp;P1;durP1;ratioP1;P2;durP2;ratioP2
45893;SDS011;31603;51.148;16.932;2022-08-03T00:02:06;4.50;;;3.88;;
45893;SDS011;31603;51.148;16.932;2022-08-03T00:04:32;6.05;;;4.22;;
45893;SDS011;31603;51.148;16.932;2022-08-03T00:06:58;6.22;;;4.60;;
45893;SDS011;31603;51.148;16.932;2022-08-03T00:09:25;5.75;;;4.20;;
45893;SDS011;31603;51.148;16.932;2022-08-03T00:11:51;7.30;;;4.25;;
45893;SDS011;31603;51.148;16.932;2022-08-03T00:14:18;6.78;;;4.30;;
45893;SDS011;31603;51.148;16.932;2022-08-03T00:16:46;7.05;;;4.35;;
45893;SDS011;31603;51.148;16.932;2022-08-03T00:19:12;6.85;;;3.80;;
45893;SDS011;31603;51.148;16.932;2022-08-03T00:21:39;5.90;;;4.30;;
45893;SDS011;31603;51.148;16.932;2022-08-03T00:24:05;8.25;;;4.35;;
45893;SDS011;31603;51.148;16.932;2022-08-03T00:26:32;6.18;;;4.25;;
45893;SDS011;31603;51.148;16.932;2022-08-03T00:28:58;6.93;;;4.72;;
45893;SDS011;31603;51.148;16.932;2022-08-03T00:31:25;7.60;;;4.28;;
45893;SDS011;31603;51.148;16.932;2022-08-03T00:33:52;4.55;;;3.85;;
45893;SDS011;31603;51.148;16.932;2022-08-03T00:36:19;6.45;;;4.15;;
45893;SDS011;31603;51.148;16.932;2022-08-03T00:38:45;8.20;;;4.20;;
45893;SDS011;31603;51.148;16.932;2022-08-03T00:41:12;8.70;;;4.93;;
45893;SDS011;31603;51.148;16.932;2022-08-03T00:43:38;7.78;;;5.00;;
45893;SDS011;31603;51.148;16.932;2022-08-03T00:46:05;7.25;;;4.68;;
45893;SDS011;31603;51.148;16.932;2022-08-03T00:48:32;4.38;;;3.97;;
45893;SDS011;31603;51.148;16.932;2022-08-03T00:51:00;8.52;;;5.32;;
45893;SDS011;31603;51.148;16.932;2022-08-03T00:53:27;8.48;;;4.85;;
45893;SDS011;31603;51.148;16.932;2022-08-03T00:55:54;8.88;;;4.72;;
45893;SDS011;31603;51.148;16.932;2022-08-03T00:58:20;7.50;;;5.22;;
45893;SDS011;31603;51.148;16.932;2022-08-03T01:00:48;7.80;;;4.85;;
45893;SDS011;31603;51.148;16.932;2022-08-03T01:03:17;7.15;;;5.25;;
45893;SDS011;31603;51.148;16.932;2022-08-03T01:05:45;7.40;;;4.53;;
45893;SDS011;31603;51.148;16.932;2022-08-03T01:08:21;8.65;;;4.95;;
45893;SDS011;31603;51.148;16.932;2022-08-03T01:10:57;7.63;;;4.82;;
45893;SDS011;31603;51.148;16.932;2022-08-03T01:13:33;6.05;;;5.15;;
45893;SDS011;31603;51.148;16.932;2022-08-03T01:16:07;6.93;;;5.05;;
45893;SDS011;31603;51.148;16.932;2022-08-03T01:18:40;6.10;;;4.32;;
45893;SDS011;31603;51.148;16.932;2022-08-03T01:21:13;6.38;;;5.10;;
45893;SDS011;31603;51.148;16.932;2022-08-03T01:23:50;7.22;;;5.20;;
45893;SDS011;31603;51.148;16.932;2022-08-03T01:26:33;8.20;;;4.95;;
45893;SDS011;31603;51.148;16.932;2022-08-03T01:29:19;6.30;;;5.15;;
45893;SDS011;31603;51.148;16.932;2022-08-03T01:32:14;8.60;;;5.35;;
45893;SDS011;31603;51.148;16.932;2022-08-03T01:34:46;6.38;;;4.60;;
45893;SDS011;31603;51.148;16.932;2022-08-03T01:37:18;8.35;;;5.35;;
45893;SDS011;31603;51.148;16.932;2022-08-03T01:39:49;6.30;;;4.85;;
45893;SDS011;31603;51.148;16.932;2022-08-03T01:42:18;8.50;;;5.30;;
45893;SDS011;31603;51.148;16.932;2022-08-03T01:44:46;7.57;;;5.00;;
45893;SDS011;31603;51.148;16.932;2022-08-03T01:47:17;9.13;;;5.75;;
45893;SDS011;31603;51.148;16.932;2022-08-03T01:49:46;8.10;;;5.43;;
45893;SDS011;31603;51.148;16.932;2022-08-03T01:52:16;7.22;;;5.82;;
45893;SDS011;31603;51.148;16.932;2022-08-03T01:54:45;8.40;;;5.80;;
45893;SDS011;31603;51.148;16.932;2022-08-03T01:57:14;11.10;;;5.60;;
45893;SDS011;31603;51.148;16.932;2022-08-03T01:59:42;7.40;;;5.85;;
45893;SDS011;31603;51.148;16.932;2022-08-03T02:02:11;11.10;;;5.50;;
45893;SDS011;31603;51.148;16.932;2022-08-03T02:04:42;7.20;;;5.82;;
45893;SDS011;31603;51.148;16.932;2022-08-03T02:07:12;12.52;;;5.43;;
45893;SDS011;31603;51.148;16.932;2022-08-03T02:09:40;7.00;;;5.43;;
45893;SDS011;31603;51.148;16.932;2022-08-03T02:12:10;8.75;;;5.70;;
45893;SDS011;31603;51.148;16.932;2022-08-03T02:14:39;8.93;;;6.18;;
45893;SDS011;31603;51.148;16.932;2022-08-03T02:17:08;9.52;;;6.32;;
45893;SDS011;31603;51.148;16.932;2022-08-03T02:19:35;8.73;;;5.95;;
45893;SDS011;31603;51.148;16.932;2022-08-03T02:22:04;10.30;;;6.32;;
45893;SDS011;31603;51.148;16.932;2022-08-03T02:24:35;9.40;;;5.88;;
45893;SDS011;31603;51.148;16.932;2022-08-03T02:27:01;9.07;;;6.22;;
45893;SDS011;31603;51.148;16.932;2022-08-03T02:29:33;8.80;;;5.65;;
45893;SDS011;31603;51.148;16.932;2022-08-03T02:32:02;10.52;;;5.75;;
45893;SDS011;31603;51.148;16.932;2022-08-03T02:34:29;8.98;;;6.07;;
45893;SDS011;31603;51.148;16.932;2022-08-03T02:36:58;7.30;;;5.47;;
45893;SDS011;31603;51.148;16.932;2022-08-03T02:39:29;6.63;;;5.95;;
45893;SDS011;31603;51.148;16.932;2022-08-03T02:41:59;6.93;;;5.63;;
45893;SDS011;31603;51.148;16.932;2022-08-03T02:44:27;6.88;;;5.60;;
45893;SDS011;31603;51.148;16.932;2022-08-03T02:46:58;5.90;;;5.30;;
45893;SDS011;31603;51.148;16.932;2022-08-03T02:49:27;7.63;;;5.28;;
45893;SDS011;31603;51.148;16.932;2022-08-03T02:51:55;6.63;;;5.93;;
45893;SDS011;31603;51.148;16.932;2022-08-03T02:54:24;10.35;;;5.70;;
45893;SDS011;31603;51.148;16.932;2022-08-03T02:56:53;8.40;;;5.05;;
45893;SDS011;31603;51.148;16.932;2022-08-03T02:59:22;8.32;;;5.15;;
45893;SDS011;31603;51.148;16.932;2022-08-03T03:01:51;6.65;;;5.70;;
45893;SDS011;31603;51.148;16.932;2022-08-03T03:04:19;9.25;;;5.65;;
45893;SDS011;31603;51.148;16.932;2022-08-03T03:06:49;8.95;;;5.65;;
45893;SDS011;31603;51.148;16.932;2022-08-03T03:09:17;7.32;;;5.70;;
45893;SDS011;31603;51.148;16.932;2022-08-03T03:11:44;7.18;;;5.72;;
45893;SDS011;31603;51.148;16.932;2022-08-03T03:14:12;9.15;;;6.28;;
45893;SDS011;31603;51.148;16.932;2022-08-03T03:16:40;7.15;;;5.78;;
45893;SDS011;31603;51.148;16.932;2022-08-03T03:19:07;7.60;;;5.47;;
45893;SDS011;31603;51.148;16.932;2022-08-03T03:21:34;8.20;;;4.78;;
45893;SDS011;31603;51.148;16.932;2022-08-03T03:24:02;7.35;;;5.72;;
45893;SDS011;31603;51.148;16.932;2022-08-03T03:26:31;7.03;;;5.65;;
45893;SDS011;31603;51.148;16.932;2022-08-03T03:28:59;7.30;;;5.38;;
45893;SDS011;31603;51.148;16.932;2022-08-03T03:31:28;9.48;;;5.22;;
45893;SDS011;31603;51.148;16.932;2022-08-03T03:33:55;7.15;;;5.28;;
45893;SDS011;31603;51.148;16.932;2022-08-03T03:36:23;8.55;;;5.13;;
45893;SDS011;31603;51.148;16.932;2022-08-03T03:38:50;9.27;;;5.57;;
45893;SDS011;31603;51.148;16.932;2022-08-03T03:41:16;7.57;;;5.25;;
45893;SDS011;31603;51.148;16.932;2022-08-03T03:43:43;6.35;;;5.53;;
45893;SDS011;31603;51.148;16.932;2022-08-03T03:46:11;8.07;;;5.68;;
45893;SDS011;31603;51.148;16.932;2022-08-03T03:48:39;9.07;;;5.82;;
45893;SDS011;31603;51.148;16.932;2022-08-03T03:51:05;7.55;;;5.65;;
45893;SDS011;31603;51.148;16.932;2022-08-03T03:53:32;6.63;;;5.63;;
45893;SDS011;31603;51.148;16.932;2022-08-03T03:55:59;7.47;;;5.85;;
45893;SDS011;31603;51.148;16.932;2022-08-03T03:58:26;8.90;;;5.65;;
45893;SDS011;31603;51.148;16.932;2022-08-03T04:00:52;9.10;;;5.38;;
45893;SDS011;31603;51.148;16.932;2022-08-03T04:03:19;8.25;;;5.88;;
45893;SDS011;31603;51.148;16.932;2022-08-03T04:05:47;6.85;;;5.80;;
45893;SDS011;31603;51.148;16.932;2022-08-03T04:08:31;8.35;;;5.82;;
45893;SDS011;31603;51.148;16.932;2022-08-03T04:11:17;6.68;;;5.70;;
45893;SDS011;31603;51.148;16.932;2022-08-03T04:13:46;8.27;;;6.13;;
45893;SDS011;31603;51.148;16.932;2022-08-03T04:16:16;8.60;;;6.80;;
45893;SDS011;31603;51.148;16.932;2022-08-03T04:18:46;7.93;;;6.43;;
45893;SDS011;31603;51.148;16.932;2022-08-03T04:21:18;8.95;;;6.18;;
45893;SDS011;31603;51.148;16.932;2022-08-03T04:23:48;9.20;;;6.20;;
45893;SDS011;31603;51.148;16.932;2022-08-03T04:26:17;8.32;;;6.22;;
45893;SDS011;31603;51.148;16.932;2022-08-03T04:28:46;9.30;;;6.28;;
45893;SDS011;31603;51.148;16.932;2022-08-03T04:31:15;8.40;;;5.72;;
45893;SDS011;31603;51.148;16.932;2022-08-03T04:33:45;10.05;;;6.82;;
45893;SDS011;31603;51.148;16.932;2022-08-03T04:36:13;9.60;;;6.57;;
45893;SDS011;31603;51.148;16.932;2022-08-03T04:38:59;10.93;;;6.93;;
45893;SDS011;31603;51.148;16.932;2022-08-03T04:41:26;8.25;;;6.47;;
45893;SDS011;31603;51.148;16.932;2022-08-03T04:43:56;10.70;;;7.03;;
45893;SDS011;31603;51.148;16.932;2022-08-03T04:46:25;11.40;;;6.82;;
45893;SDS011;31603;51.148;16.932;2022-08-03T04:48:53;9.40;;;6.50;;
45893;SDS011;31603;51.148;16.932;2022-08-03T04:51:21;7.88;;;7.05;;
45893;SDS011;31603;51.148;16.932;2022-08-03T04:53:49;13.57;;;8.25;;
45893;SDS011;31603;51.148;16.932;2022-08-03T04:56:16;10.13;;;6.88;;
45893;SDS011;31603;51.148;16.932;2022-08-03T04:58:43;9.00;;;6.63;;
45893;SDS011;31603;51.148;16.932;2022-08-03T05:01:09;12.50;;;6.68;;
45893;SDS011;31603;51.148;16.932;2022-08-03T05:03:36;10.98;;;6.78;;
45893;SDS011;31603;51.148;16.932;2022-08-03T05:06:02;13.27;;;7.07;;
45893;SDS011;31603;51.148;16.932;2022-08-03T05:08:29;10.98;;;6.80;;
45893;SDS011;31603;51.148;16.932;2022-08-03T05:10:56;10.25;;;6.55;;
45893;SDS011;31603;51.148;16.932;2022-08-03T05:13:23;9.73;;;7.18;;
45893;SDS011;31603;51.148;16.932;2022-08-03T05:15:49;11.50;;;7.32;;
45893;SDS011;31603;51.148;16.932;2022-08-03T05:18:16;11.02;;;7.60;;
45893;SDS011;31603;51.148;16.932;2022-08-03T05:20:43;10.70;;;7.80;;
45893;SDS011;31603;51.148;16.932;2022-08-03T05:23:09;10.85;;;6.68;;
45893;SDS011;31603;51.148;16.932;2022-08-03T05:25:35;11.13;;;7.43;;
45893;SDS011;31603;51.148;16.932;2022-08-03T05:28:03;11.93;;;7.47;;
45893;SDS011;31603;51.148;16.932;2022-08-03T05:30:30;9.52;;;7.22;;
45893;SDS011;31603;51.148;16.932;2022-08-03T05:32:56;9.45;;;6.40;;
45893;SDS011;31603;51.148;16.932;2022-08-03T05:35:23;11.38;;;7.25;;
45893;SDS011;31603;51.148;16.932;2022-08-03T05:37:50;9.50;;;7.47;;
45893;SDS011;31603;51.148;16.932;2022-08-03T05:40:16;14.90;;;6.75;;
45893;SDS011;31603;51.148;16.932;2022-08-03T05:42:43;8.98;;;7.32;;
45893;SDS011;31603;51.148;16.932;2022-08-03T05:45:11;8.82;;;6.70;;
45893;SDS011;31603;51.148;16.932;2022-08-03T05:47:39;10.20;;;5.78;;
45893;SDS011;31603;51.148;16.932;2022-08-03T05:50:08;11.27;;;5.88;;
45893;SDS011;31603;51.148;16.932;2022-08-03T05:52:35;8.88;;;5.68;;
45893;SDS011;31603;51.148;16.932;2022-08-03T05:55:01;10.05;;;5.05;;
45893;SDS011;31603;51.148;16.932;2022-08-03T05:57:27;11.55;;;5.50;;
45893;SDS011;31603;51.148;16.932;2022-08-03T05:59:54;9.55;;;5.38;;
45893;SDS011;31603;51.148;16.932;2022-08-03T06:02:22;7.50;;;5.10;;
45893;SDS011;31603;51.148;16.932;2022-08-03T06:04:48;9.07;;;5.38;;
45893;SDS011;31603;51.148;16.932;2022-08-03T06:07:15;8.57;;;4.80;;
45893;SDS011;31603;51.148;16.932;2022-08-03T06:09:41;6.38;;;4.57;;
45893;SDS011;31603;51.148;16.932;2022-08-03T06:12:08;8.40;;;5.32;;
45893;SDS011;31603;51.148;16.932;2022-08-03T06:14:34;7.80;;;5.00;;
45893;SDS011;31603;51.148;16.932;2022-08-03T06:17:01;8.07;;;5.00;;
45893;SDS011;31603;51.148;16.932;2022-08-03T06:19:29;6.15;;;4.65;;
45893;SDS011;31603;51.148;16.932;2022-08-03T06:21:55;8.75;;;4.85;;
45893;SDS011;31603;51.148;16.932;2022-08-03T06:24:22;10.98;;;4.60;;
45893;SDS011;31603;51.148;16.932;2022-08-03T06:26:48;9.73;;;4.63;;
45893;SDS011;31603;51.148;16.932;2022-08-03T06:29:17;5.72;;;4.43;;
45893;SDS011;31603;51.148;16.932;2022-08-03T06:31:43;7.47;;;4.60;;
45893;SDS011;31603;51.148;16.932;2022-08-03T06:34:10;6.65;;;4.75;;
45893;SDS011;31603;51.148;16.932;2022-08-03T06:36:38;10.93;;;4.82;;
45893;SDS011;31603;51.148;16.932;2022-08-03T06:39:04;8.95;;;4.60;;
45893;SDS011;31603;51.148;16.932;2022-08-03T06:41:33;9.82;;;4.93;;
45893;SDS011;31603;51.148;16.932;2022-08-03T06:44:00;8.85;;;4.50;;
45893;SDS011;31603;51.148;16.932;2022-08-03T06:46:26;5.90;;;3.90;;
45893;SDS011;31603;51.148;16.932;2022-08-03T06:48:53;7.40;;;4.10;;
45893;SDS011;31603;51.148;16.932;2022-08-03T06:51:20;5.78;;;3.53;;
45893;SDS011;31603;51.148;16.932;2022-08-03T06:53:50;7.30;;;3.78;;
45893;SDS011;31603;51.148;16.932;2022-08-03T06:56:16;9.07;;;4.43;;
45893;SDS011;31603;51.148;16.932;2022-08-03T06:58:44;8.35;;;3.22;;
45893;SDS011;31603;51.148;16.932;2022-08-03T07:01:12;10.25;;;4.10;;
45893;SDS011;31603;51.148;16.932;2022-08-03T07:03:39;4.78;;;3.03;;
45893;SDS011;31603;51.148;16.932;2022-08-03T07:06:05;4.70;;;3.50;;
45893;SDS011;31603;51.148;16.932;2022-08-03T07:08:32;7.28;;;3.33;;
45893;SDS011;31603;51.148;16.932;2022-08-03T07:11:00;6.43;;;3.17;;
45893;SDS011;31603;51.148;16.932;2022-08-03T07:13:26;8.38;;;3.40;;
45893;SDS011;31603;51.148;16.932;2022-08-03T07:15:53;6.93;;;4.40;;
45893;SDS011;31603;51.148;16.932;2022-08-03T07:18:20;6.13;;;2.90;;
45893;SDS011;31603;51.148;16.932;2022-08-03T07:20:47;7.80;;;3.55;;
45893;SDS011;31603;51.148;16.932;2022-08-03T07:23:13;9.02;;;3.30;;
45893;SDS011;31603;51.148;16.932;2022-08-03T07:25:40;8.00;;;2.90;;
45893;SDS011;31603;51.148;16.932;2022-08-03T07:28:10;4.85;;;3.08;;
45893;SDS011;31603;51.148;16.932;2022-08-03T07:30:37;5.72;;;2.80;;
45893;SDS011;31603;51.148;16.932;2022-08-03T07:33:06;7.38;;;3.50;;
45893;SDS011;31603;51.148;16.932;2022-08-03T07:35:32;4.50;;;2.72;;
45893;SDS011;31603;51.148;16.932;2022-08-03T07:37:59;5.22;;;2.67;;
45893;SDS011;31603;51.148;16.932;2022-08-03T07:40:25;3.92;;;3.30;;
45893;SDS011;31603;51.148;16.932;2022-08-03T07:42:53;3.70;;;3.05;;
45893;SDS011;31603;51.148;16.932;2022-08-03T07:45:21;3.10;;;2.50;;
45893;SDS011;31603;51.148;16.932;2022-08-03T07:47:48;4.68;;;2.40;;
45893;SDS011;31603;51.148;16.932;2022-08-03T07:50:15;5.97;;;2.75;;
45893;SDS011;31603;51.148;16.932;2022-08-03T07:52:41;2.47;;;2.28;;
45893;SDS011;31603;51.148;16.932;2022-08-03T07:55:14;4.15;;;2.35;;
45893;SDS011;31603;51.148;16.932;2022-08-03T07:57:41;5.18;;;2.30;;
45893;SDS011;31603;51.148;16.932;2022-08-03T08:00:11;3.03;;;2.40;;
45893;SDS011;31603;51.148;16.932;2022-08-03T08:05:07;4.03;;;2.60;;
45893;SDS011;31603;51.148;16.932;2022-08-03T08:07:34;4.20;;;2.47;;
45893;SDS011;31603;51.148;16.932;2022-08-03T08:10:01;5.13;;;2.60;;
45893;SDS011;31603;51.148;16.932;2022-08-03T08:12:29;5.30;;;2.58;;
45893;SDS011;31603;51.148;16.932;2022-08-03T08:14:55;4.35;;;2.42;;
45893;SDS011;31603;51.148;16.932;2022-08-03T08:17:21;4.82;;;2.45;;
45893;SDS011;31603;51.148;16.932;2022-08-03T08:19:57;3.53;;;2.28;;
45893;SDS011;31603;51.148;16.932;2022-08-03T08:22:23;9.30;;;2.58;;
45893;SDS011;31603;51.148;16.932;2022-08-03T08:24:50;3.60;;;2.85;;
45893;SDS011;31603;51.148;16.932;2022-08-03T08:27:17;4.82;;;2.28;;
45893;SDS011;31603;51.148;16.932;2022-08-03T08:29:43;2.13;;;1.92;;
45893;SDS011;31603;51.148;16.932;2022-08-03T08:32:10;3.75;;;2.38;;
45893;SDS011;31603;51.148;16.932;2022-08-03T08:34:40;2.28;;;2.08;;
45893;SDS011;31603;51.148;16.932;2022-08-03T08:37:09;5.53;;;2.10;;
45893;SDS011;31603;51.148;16.932;2022-08-03T08:39:35;3.55;;;2.47;;
45893;SDS011;31603;51.148;16.932;2022-08-03T08:42:02;4.03;;;2.20;;
45893;SDS011;31603;51.148;16.932;2022-08-03T08:44:29;2.72;;;1.90;;
45893;SDS011;31603;51.148;16.932;2022-08-03T08:46:55;3.00;;;1.88;;
45893;SDS011;31603;51.148;16.932;2022-08-03T08:49:27;2.05;;;1.85;;
45893;SDS011;31603;51.148;16.932;2022-08-03T08:51:54;3.47;;;1.88;;
45893;SDS011;31603;51.148;16.932;2022-08-03T08:54:24;2.10;;;1.90;;
45893;SDS011;31603;51.148;16.932;2022-08-03T08:56:51;2.60;;;1.85;;
45893;SDS011;31603;51.148;16.932;2022-08-03T08:59:21;4.93;;;2.30;;
45893;SDS011;31603;51.148;16.932;2022-08-03T09:01:49;2.75;;;1.70;;
45893;SDS011;31603;51.148;16.932;2022-08-03T09:04:15;4.10;;;2.13;;
45893;SDS011;31603;51.148;16.932;2022-08-03T09:06:42;3.60;;;2.00;;
45893;SDS011;31603;51.148;16.932;2022-08-03T09:09:17;3.15;;;1.80;;
45893;SDS011;31603;51.148;16.932;2022-08-03T09:11:46;2.95;;;2.22;;
45893;SDS011;31603;51.148;16.932;2022-08-03T09:14:13;4.07;;;1.90;;
45893;SDS011;31603;51.148;16.932;2022-08-03T09:16:53;5.28;;;2.20;;
45893;SDS011;31603;51.148;16.932;2022-08-03T09:19:21;2.20;;;2.00;;
45893;SDS011;31603;51.148;16.932;2022-08-03T09:21:50;2.63;;;1.73;;
45893;SDS011;31603;51.148;16.932;2022-08-03T09:24:53;7.80;;;2.25;;
45893;SDS011;31603;51.148;16.932;2022-08-03T09:27:24;2.70;;;2.05;;
45893;SDS011;31603;51.148;16.932;2022-08-03T09:29:51;2.88;;;1.88;;
45893;SDS011;31603;51.148;16.932;2022-08-03T09:32:19;2.20;;;2.00;;
45893;SDS011;31603;51.148;16.932;2022-08-03T09:34:46;2.35;;;1.90;;
45893;SDS011;31603;51.148;16.932;2022-08-03T09:37:13;3.00;;;1.67;;
45893;SDS011;31603;51.148;16.932;2022-08-03T09:39:41;3.72;;;1.85;;
45893;SDS011;31603;51.148;16.932;2022-08-03T09:42:08;2.20;;;1.92;;
45893;SDS011;31603;51.148;16.932;2022-08-03T09:44:43;2.70;;;1.88;;
45893;SDS011;31603;51.148;16.932;2022-08-03T09:47:11;5.47;;;2.10;;
45893;SDS011;31603;51.148;16.932;2022-08-03T09:49:40;2.15;;;1.95;;
45893;SDS011;31603;51.148;16.932;2022-08-03T09:52:11;2.40;;;2.08;;
45893;SDS011;31603;51.148;16.932;2022-08-03T09:54:39;2.92;;;1.80;;
45893;SDS011;31603;51.148;16.932;2022-08-03T09:57:06;4.82;;;2.20;;
45893;SDS011;31603;51.148;16.932;2022-08-03T09:59:33;3.38;;;1.63;;
45893;SDS011;31603;51.148;16.932;2022-08-03T10:02:02;5.88;;;1.80;;
45893;SDS011;31603;51.148;16.932;2022-08-03T10:04:45;2.78;;;1.80;;
45893;SDS011;31603;51.148;16.932;2022-08-03T10:07:12;11.93;;;2.20;;
45893;SDS011;31603;51.148;16.932;2022-08-03T10:09:39;2.28;;;1.83;;
45893;SDS011;31603;51.148;16.932;2022-08-03T10:12:21;2.55;;;1.92;;
45893;SDS011;31603;51.148;16.932;2022-08-03T10:14:48;2.08;;;1.45;;
45893;SDS011;31603;51.148;16.932;2022-08-03T10:17:15;3.28;;;2.28;;
45893;SDS011;31603;51.148;16.932;2022-08-03T10:19:44;3.15;;;2.10;;
45893;SDS011;31603;51.148;16.932;2022-08-03T10:22:11;3.20;;;1.80;;
45893;SDS011;31603;51.148;16.932;2022-08-03T10:24:43;2.25;;;1.90;;
45893;SDS011;31603;51.148;16.932;2022-08-03T10:27:14;2.60;;;1.80;;
45893;SDS011;31603;51.148;16.932;2022-08-03T10:29:44;1.60;;;1.50;;
45893;SDS011;31603;51.148;16.932;2022-08-03T10:32:17;2.05;;;1.95;;
45893;SDS011;31603;51.148;16.932;2022-08-03T10:34:49;2.20;;;1.85;;
45893;SDS011;31603;51.148;16.932;2022-08-03T10:37:16;2.25;;;1.92;;
45893;SDS011;31603;51.148;16.932;2022-08-03T10:39:45;2.38;;;2.00;;
45893;SDS011;31603;51.148;16.932;2022-08-03T10:42:22;3.33;;;1.88;;
45893;SDS011;31603;51.148;16.932;2022-08-03T10:44:51;3.13;;;1.83;;
45893;SDS011;31603;51.148;16.932;2022-08-03T10:47:27;1.80;;;1.70;;
45893;SDS011;31603;51.148;16.932;2022-08-03T10:49:55;3.65;;;2.08;;
45893;SDS011;31603;51.148;16.932;2022-08-03T10:52:22;1.52;;;1.42;;
45893;SDS011;31603;51.148;16.932;2022-08-03T10:54:50;3.95;;;1.63;;
45893;SDS011;31603;51.148;16.932;2022-08-03T10:57:44;3.42;;;1.77;;
45893;SDS011;31603;51.148;16.932;2022-08-03T11:00:14;2.35;;;1.70;;
45893;SDS011;31603;51.148;16.932;2022-08-03T11:03:01;3.22;;;1.73;;
45893;SDS011;31603;51.148;16.932;2022-08-03T11:05:38;9.48;;;1.90;;
45893;SDS011;31603;51.148;16.932;2022-08-03T11:08:16;7.70;;;1.80;;
45893;SDS011;31603;51.148;16.932;2022-08-03T11:10:44;4.10;;;1.70;;
45893;SDS011;31603;51.148;16.932;2022-08-03T11:13:11;3.15;;;1.83;;
45893;SDS011;31603;51.148;16.932;2022-08-03T11:15:42;2.05;;;1.60;;
45893;SDS011;31603;51.148;16.932;2022-08-03T11:18:12;3.33;;;1.67;;
45893;SDS011;31603;51.148;16.932;2022-08-03T11:20:42;2.13;;;1.60;;
45893;SDS011;31603;51.148;16.932;2022-08-03T11:23:10;1.60;;;1.50;;
45893;SDS011;31603;51.148;16.932;2022-08-03T11:28:48;1.63;;;1.52;;
45893;SDS011;31603;51.148;16.932;2022-08-03T11:34:14;2.00;;;1.40;;
45893;SDS011;31603;51.148;16.932;2022-08-03T11:39:46;1.58;;;1.40;;
45893;SDS011;31603;51.148;16.932;2022-08-03T11:45:10;4.13;;;1.40;;
45893;SDS011;31603;51.148;16.932;2022-08-03T11:47:38;2.42;;;1.40;;
45893;SDS011;31603;51.148;16.932;2022-08-03T11:50:07;2.97;;;1.40;;
45893;SDS011;31603;51.148;16.932;2022-08-03T11:52:36;2.65;;;1.30;;
45893;SDS011;31603;51.148;16.932;2022-08-03T11:55:11;2.38;;;1.60;;
45893;SDS011;31603;51.148;16.932;2022-08-03T11:57:39;1.92;;;1.40;;
45893;SDS011;31603;51.148;16.932;2022-08-03T12:00:19;3.15;;;1.65;;
45893;SDS011;31603;51.148;16.932;2022-08-03T12:02:55;2.35;;;1.70;;
45893;SDS011;31603;51.148;16.932;2022-08-03T12:05:41;1.67;;;1.42;;
45893;SDS011;31603;51.148;16.932;2022-08-03T12:08:10;2.78;;;1.40;;
45893;SDS011;31603;51.148;16.932;2022-08-03T12:10:38;3.83;;;1.45;;
45893;SDS011;31603;51.148;16.932;2022-08-03T12:13:06;1.98;;;1.30;;
45893;SDS011;31603;51.148;16.932;2022-08-03T12:15:34;2.55;;;1.20;;
45893;SDS011;31603;51.148;16.932;2022-08-03T12:18:01;2.05;;;1.48;;
45893;SDS011;31603;51.148;16.932;2022-08-03T12:20:30;2.47;;;1.35;;
45893;SDS011;31603;51.148;16.932;2022-08-03T12:23:02;1.30;;;1.20;;
45893;SDS011;31603;51.148;16.932;2022-08-03T12:25:30;2.25;;;1.35;;
45893;SDS011;31603;51.148;16.932;2022-08-03T12:28:08;9.48;;;2.13;;
45893;SDS011;31603;51.148;16.932;2022-08-03T12:30:42;2.63;;;1.40;;
45893;SDS011;31603;51.148;16.932;2022-08-03T12:33:20;1.27;;;1.17;;
45893;SDS011;31603;51.148;16.932;2022-08-03T12:35:49;2.38;;;1.30;;
45893;SDS011;31603;51.148;16.932;2022-08-03T12:38:29;1.30;;;1.20;;
45893;SDS011;31603;51.148;16.932;2022-08-03T12:40:57;2.50;;;1.40;;
45893;SDS011;31603;51.148;16.932;2022-08-03T12:43:29;3.90;;;1.55;;
45893;SDS011;31603;51.148;16.932;2022-08-03T12:46:09;6.07;;;1.20;;
45893;SDS011;31603;51.148;16.932;2022-08-03T12:51:29;1.15;;;1.08;;
45893;SDS011;31603;51.148;16.932;2022-08-03T12:53:59;1.67;;;1.20;;
45893;SDS011;31603;51.148;16.932;2022-08-03T12:56:26;1.40;;;1.17;;
45893;SDS011;31603;51.148;16.932;2022-08-03T12:58:52;1.27;;;1.10;;
45893;SDS011;31603;51.148;16.932;2022-08-03T13:01:19;1.05;;;0.95;;
45893;SDS011;31603;51.148;16.932;2022-08-03T13:03:49;1.83;;;1.17;;
45893;SDS011;31603;51.148;16.932;2022-08-03T13:06:17;2.53;;;1.30;;
45893;SDS011;31603;51.148;16.932;2022-08-03T13:08:45;1.27;;;1.00;;
45893;SDS011;31603;51.148;16.932;2022-08-03T13:11:23;1.27;;;1.20;;
45893;SDS011;31603;51.148;16.932;2022-08-03T13:13:53;1.40;;;1.30;;
45893;SDS011;31603;51.148;16.932;2022-08-03T13:16:22;2.83;;;1.10;;
45893;SDS011;31603;51.148;16.932;2022-08-03T13:18:51;2.08;;;1.20;;
45893;SDS011;31603;51.148;16.932;2022-08-03T13:21:19;1.08;;;1.02;;
45893;SDS011;31603;51.148;16.932;2022-08-03T13:23:46;1.52;;;1.08;;
45893;SDS011;31603;51.148;16.932;2022-08-03T13:26:12;1.95;;;1.20;;
45893;SDS011;31603;51.148;16.932;2022-08-03T13:28:40;1.40;;;1.30;;
45893;SDS011;31603;51.148;16.932;2022-08-03T13:31:07;2.33;;;1.35;;
45893;SDS011;31603;51.148;16.932;2022-08-03T13:33:33;4.28;;;1.30;;
45893;SDS011;31603;51.148;16.932;2022-08-03T13:36:00;1.63;;;1.35;;
45893;SDS011;31603;51.148;16.932;2022-08-03T13:38:26;1.33;;;1.13;;
45893;SDS011;31603;51.148;16.932;2022-08-03T13:40:52;2.03;;;1.20;;
45893;SDS011;31603;51.148;16.932;2022-08-03T13:43:19;1.50;;;1.40;;
45893;SDS011;31603;51.148;16.932;2022-08-03T13:45:47;1.77;;;1.00;;
45893;SDS011;31603;51.148;16.932;2022-08-03T13:48:14;2.75;;;1.27;;
45893;SDS011;31603;51.148;16.932;2022-08-03T13:50:41;1.35;;;1.25;;
45893;SDS011;31603;51.148;16.932;2022-08-03T13:53:07;3.75;;;1.30;;
45893;SDS011;31603;51.148;16.932;2022-08-03T13:55:33;1.67;;;1.20;;
45893;SDS011;31603;51.148;16.932;2022-08-03T13:58:00;4.15;;;1.20;;
45893;SDS011;31603;51.148;16.932;2022-08-03T14:00:27;1.33;;;1.10;;
45893;SDS011;31603;51.148;16.932;2022-08-03T14:02:54;1.42;;;1.33;;
45893;SDS011;31603;51.148;16.932;2022-08-03T14:05:22;1.50;;;1.40;;
45893;SDS011;31603;51.148;16.932;2022-08-03T14:07:49;5.93;;;1.48;;
45893;SDS011;31603;51.148;16.932;2022-08-03T14:10:16;2.25;;;1.20;;
45893;SDS011;31603;51.148;16.932;2022-08-03T14:12:43;1.40;;;1.10;;
45893;SDS011;31603;51.148;16.932;2022-08-03T14:15:10;2.47;;;0.95;;
45893;SDS011;31603;51.148;16.932;2022-08-03T14:17:37;2.15;;;1.33;;
45893;SDS011;31603;51.148;16.932;2022-08-03T14:20:06;3.22;;;1.20;;
45893;SDS011;31603;51.148;16.932;2022-08-03T14:22:33;3.67;;;1.30;;
45893;SDS011;31603;51.148;16.932;2022-08-03T14:24:59;5.30;;;1.58;;
45893;SDS011;31603;51.148;16.932;2022-08-03T14:27:26;21.85;;;3.42;;
45893;SDS011;31603;51.148;16.932;2022-08-03T14:29:52;2.25;;;1.60;;
45893;SDS011;31603;51.148;16.932;2022-08-03T14:32:20;3.17;;;1.50;;
45893;SDS011;31603;51.148;16.932;2022-08-03T14:34:47;4.70;;;1.60;;
45893;SDS011;31603;51.148;16.932;2022-08-03T14:37:14;3.45;;;1.15;;
45893;SDS011;31603;51.148;16.932;2022-08-03T14:39:41;1.67;;;0.95;;
45893;SDS011;31603;51.148;16.932;2022-08-03T14:42:07;2.85;;;1.23;;
45893;SDS011;31603;51.148;16.932;2022-08-03T14:44:34;9.75;;;2.08;;
45893;SDS011;31603;51.148;16.932;2022-08-03T14:47:00;2.75;;;1.33;;
45893;SDS011;31603;51.148;16.932;2022-08-03T14:49:27;3.90;;;1.52;;
45893;SDS011;31603;51.148;16.932;2022-08-03T14:51:53;7.95;;;2.28;;
45893;SDS011;31603;51.148;16.932;2022-08-03T14:54:21;3.05;;;1.38;;
45893;SDS011;31603;51.148;16.932;2022-08-03T14:56:48;3.00;;;1.40;;
45893;SDS011;31603;51.148;16.932;2022-08-03T14:59:14;3.63;;;1.60;;
45893;SDS011;31603;51.148;16.932;2022-08-03T15:01:41;6.45;;;1.55;;